Naoro Airport

NOO · Northern Province, 巴布亚新几内亚

罗盘
风向 的 风向 080°
风向 到 风: 5 kt, 阵阵 15 kt, 2 beaufort

添加一条跑道以查看侧风和逆风信息。

添置 跑道
0 ft 2.000 4.000 6.000 8.000 10.000
Cloud Cloud Cloud Cloud
SCT 5.000
Cloud Cloud Cloud Cloud
SCT 8.000
METAR AYNZ 300900Z 08005G15KT 9999 HZ SCT050 SCT080 29/22 Q1006 RMK

METAR Naoro Airport - NOO/NOO

Naoro Airport是,巴布亚新几内亚中的小机场。 视场标高为2.372 ft。 该领域的国际民航组织标志是NOO 它的国际航空运输协会代码是NOO.

这份报告是针对2023年1月30日 19:00, 当地时间在Nadzab Airport进行的。

机场观察

风向为080°,速度为5 kt。 已测得15 kt的阵风。

可见度为10 km 或者更多。

有疏云,零星散落的云朵在5.000 ft的高度 和 疏云,零星散落的云朵在8.000 ft的高度。 没有观察到天花板。

当前天气为阴霾。 温度和风寒是29 °C。 热指数为32。 露点为22 °C,相对湿度为66%。 海平面上的气压为1006 hPa (QNH)。

白天

今天,太阳从06:07升起,在18:38降落。 这适用于Naoro Airport,世界夏令时可能有所不同。 当地时间与世界标准时间之间的时差为+10 小时。 当前,没有夏令时有效。

公司介绍

我们没有关于这个机场的公司信息。

体会

到Vliegles.nl去找飞行课程,跳伞和其他飞行体验。 浏览页面,了解Naoro Airport附近所有可用的活动。 你也可以使用搜索功能来寻找你所在地附近的特定飞行课程、跳伞或其他飞行体验。

乌云

5.000 ft SCT 疏云,零星散落的云朵
8.000 ft SCT 疏云,零星散落的云朵

温度 & 天气

天气 阴霾
温度 29 °C
露点 22 °C
相对湿度 66%
热度指数 32 °C
Kp-index 1 (0-9)

白天

日出
06:14 (8:17)
中午
12:26
日落
18:38

小工具

你想在你的网站上有一个关于Naoro Airport的当前航空天气(METAR)的小部件吗?

显示HTML代码

我们和第三方通过cookies跟踪您在我们网站上的互联网行为。如果你继续,我们认为你同意我们的饼干政策